TimeCST,TemperatureF,Dew PointF,Humidity,Sea Level PressureIn,VisibilityMPH,Wind Direction,Wind SpeedMPH,Gust SpeedMPH,PrecipitationIn,Events,Conditions,WindDirDegrees,DateUTC
12:53 AM,48.0,19.9,33,29.34,10.0,WSW,11.5,-,N/A,,Clear,250,2014-02-20 06:53:00
1:53 AM,57.9,21.9,25,29.34,10.0,West,25.3,32.2,N/A,,Scattered Clouds,270,2014-02-20 07:53:00
2:05 AM,57.9,28.9,33,29.44,2.5,WNW,28.8,46.0,N/A,,Haze,290,2014-02-20 08:05:00
2:13 AM,55.9,30.0,37,29.45,1.2,WNW,29.9,41.4,N/A,,Haze,300,2014-02-20 08:13:00
2:25 AM,54.0,30.0,40,29.46,3.0,NW,27.6,42.6,N/A,,Haze,310,2014-02-20 08:25:00
2:53 AM,48.9,32.0,52,29.42,6.0,NW,38.0,49.5,N/A,,Haze,310,2014-02-20 08:53:00
3:15 AM,45.0,32.0,60,29.53,1.8,NNW,38.0,51.8,0.00,Rain,Light Rain,330,2014-02-20 09:15:00
3:38 AM,42.1,30.0,62,29.55,2.0,NNW,34.5,50.6,0.00,,Haze,330,2014-02-20 09:38:00
3:49 AM,39.2,30.2,70,29.57,3.0,NNW,34.5,50.6,0.00,,Haze,330,2014-02-20 09:49:00
3:53 AM,39.9,30.9,70,29.52,4.0,NNW,31.1,47.2,0.00,,Haze,330,2014-02-20 09:53:00
4:43 AM,37.0,28.9,73,29.63,8.0,NNW,31.1,49.5,N/A,,Scattered Clouds,340,2014-02-20 10:43:00
4:53 AM,37.0,28.9,73,29.60,10.0,NNW,29.9,46.0,N/A,,Partly Cloudy,330,2014-02-20 10:53:00
5:34 AM,33.1,30.0,89,29.74,2.0,NNW,29.9,42.6,0.00,Snow,Light Snow,330,2014-02-20 11:34:00
5:53 AM,34.0,28.9,82,29.71,8.0,NNW,32.2,40.3,0.00,Snow,Light Snow,340,2014-02-20 11:53:00
6:00 AM,34.0,28.9,82,29.75,9.0,NNW,27.6,40.3,0.00,Snow,Light Snow,340,2014-02-20 12:00:00
6:35 AM,33.1,28.9,85,29.78,10.0,North,20.7,29.9,0.00,,Mostly Cloudy,350,2014-02-20 12:35:00
6:53 AM,32.0,28.9,88,29.76,10.0,North,18.4,-,0.00,,Partly Cloudy,350,2014-02-20 12:53:00
7:21 AM,33.1,28.9,85,29.85,10.0,NW,16.1,-,N/A,,Mostly Cloudy,320,2014-02-20 13:21:00
7:53 AM,32.0,27.0,82,29.84,10.0,NNW,16.1,26.5,N/A,,Mostly Cloudy,340,2014-02-20 13:53:00
8:06 AM,33.1,26.1,75,29.87,10.0,NNW,20.7,28.8,N/A,,Scattered Clouds,340,2014-02-20 14:06:00
8:16 AM,34.0,27.0,75,29.88,10.0,NNW,15.0,-,N/A,,Mostly Cloudy,340,2014-02-20 14:16:00
8:45 AM,34.0,27.0,75,29.91,10.0,NNW,11.5,-,N/A,,Partly Cloudy,330,2014-02-20 14:45:00
8:53 AM,35.1,27.0,72,29.89,10.0,NNW,12.7,-,N/A,,Partly Cloudy,330,2014-02-20 14:53:00
9:53 AM,39.0,21.9,50,29.92,10.0,NW,20.7,29.9,N/A,,Mostly Cloudy,320,2014-02-20 15:53:00
10:53 AM,44.1,10.9,26,29.94,10.0,North,26.5,-,N/A,,Clear,350,2014-02-20 16:53:00
11:53 AM,46.0,10.0,23,29.94,10.0,NNW,26.5,40.3,N/A,,Clear,330,2014-02-20 17:53:00
12:53 PM,46.0,6.1,20,29.95,10.0,NNW,29.9,41.4,N/A,,Partly Cloudy,340,2014-02-20 18:53:00
1:53 PM,46.0,6.1,20,29.94,10.0,NNW,25.3,35.7,N/A,,Mostly Cloudy,330,2014-02-20 19:53:00
2:53 PM,46.0,5.0,19,29.96,10.0,NW,19.6,36.8,N/A,,Mostly Cloudy,320,2014-02-20 20:53:00
3:53 PM,48.0,3.0,16,29.99,10.0,NW,21.9,28.8,N/A,,Scattered Clouds,320,2014-02-20 21:53:00
4:53 PM,46.9,-0.0,14,29.99,10.0,NNW,21.9,31.1,N/A,,Clear,330,2014-02-20 22:53:00
5:53 PM,45.0,-0.0,15,30.00,10.0,NNW,16.1,-,N/A,,Clear,340,2014-02-20 23:53:00
6:53 PM,37.0,5.0,26,30.05,10.0,North,10.4,-,N/A,,Clear,350,2014-02-21 00:53:00
7:53 PM,37.9,6.1,27,30.07,10.0,Calm,Calm,-,N/A,,Clear,0,2014-02-21 01:53:00
8:53 PM,28.9,6.1,38,30.09,10.0,SW,6.9,-,N/A,,Clear,220,2014-02-21 02:53:00
9:53 PM,27.0,7.0,43,30.09,10.0,WSW,6.9,-,N/A,,Clear,240,2014-02-21 03:53:00
10:53 PM,26.1,8.1,47,30.08,10.0,West,6.9,-,N/A,,Clear,260,2014-02-21 04:53:00
11:53 PM,21.0,7.0,55,30.07,10.0,WSW,8.1,-,N/A,,Clear,240,2014-02-21 05:53:00